Time;durP1;ratioP1;P1;durP2;ratioP2;P2;SDS_P1;SDS_P2;PMS_P1;PMS_P2;Temp;Humidity;BMP_temperature;BMP_pressure;BME280_temperature;BME280_humidity;BME280_pressure;Samples;Min_cycle;Max_cycle;Signal;HPM_P1;HPM_P2
2022/04/22 00:01:20;;;;;;;5.25;2.30;;;22.10;33.30;;;;;;5020877;28;20045;-42
2022/04/22 00:03:47;;;;;;;5.40;2.20;;;22.10;33.30;;;;;;5018907;28;20354;-39
2022/04/22 00:06:13;;;;;;;2.75;2.40;;;22.10;33.20;;;;;;5020025;28;20033;-38
2022/04/22 00:08:39;;;;;;;3.60;2.60;;;22.10;33.30;;;;;;5019654;28;20018;-39
2022/04/22 00:13:51;;;;;;;4.00;2.67;;;22.10;33.20;;;;;;5019572;28;20057;-38
2022/04/22 00:16:19;;;;;;;3.17;2.10;;;22.10;33.30;;;;;;5019327;28;20476;-39
2022/04/22 00:18:45;;;;;;;3.05;2.30;;;22.00;33.20;;;;;;5020494;28;20022;-38
2022/04/22 00:21:14;;;;;;;4.15;2.20;;;22.10;33.30;;;;;;5020470;28;20476;-39
2022/04/22 00:23:44;;;;;;;3.03;2.13;;;22.00;33.20;;;;;;5018105;28;20056;-39
2022/04/22 00:26:10;;;;;;;4.63;2.20;;;22.00;33.20;;;;;;5019419;28;20061;-39
2022/04/22 00:28:36;;;;;;;2.97;2.17;;;22.00;33.20;;;;;;5019112;28;20014;-42
2022/04/22 00:31:02;;;;;;;3.10;2.40;;;22.00;33.20;;;;;;5017766;28;20516;-39
2022/04/22 00:33:29;;;;;;;3.65;2.10;;;22.00;33.20;;;;;;5019751;28;20049;-40
2022/04/22 00:35:54;;;;;;;4.05;2.13;;;22.00;33.20;;;;;;5019304;28;20010;-41
2022/04/22 00:38:20;;;;;;;3.67;2.20;;;22.00;33.20;;;;;;5020231;28;20110;-44
2022/04/22 00:40:47;;;;;;;2.58;2.00;;;22.00;33.20;;;;;;5020020;28;20024;-44
2022/04/22 00:43:17;;;;;;;4.70;2.10;;;22.00;33.20;;;;;;5019770;28;20415;-45
2022/04/22 00:45:43;;;;;;;;;;;22.00;33.20;;;;;;5019275;28;20116;-39
2022/04/22 00:48:09;;;;;;;2.50;1.88;;;22.00;33.20;;;;;;5019664;28;19976;-41
2022/04/22 00:50:35;;;;;;;3.25;2.20;;;22.00;33.20;;;;;;5017801;28;20017;-38
2022/04/22 00:53:01;;;;;;;2.80;1.90;;;22.00;33.30;;;;;;5018079;28;20018;-38
2022/04/22 00:55:27;;;;;;;2.92;2.20;;;22.00;33.30;;;;;;5018107;28;20061;-38
2022/04/22 00:57:53;;;;;;;2.60;1.95;;;22.00;33.20;;;;;;5017774;28;20018;-39
2022/04/22 01:00:20;;;;;;;2.83;2.13;;;22.00;33.20;;;;;;5017674;28;20021;-38
2022/04/22 01:02:45;;;;;;;2.95;2.05;;;22.00;33.30;;;;;;5018074;28;20035;-38
2022/04/22 01:10:39;;;;;;;3.63;2.20;;;22.00;33.30;;;;;;5016578;28;20052;-39
2022/04/22 01:13:07;;;;;;;3.63;2.00;;;22.00;33.30;;;;;;5015752;28;20037;-39
2022/04/22 01:15:34;;;;;;;3.05;1.90;;;22.00;33.20;;;;;;5016332;28;20018;-39
2022/04/22 01:18:00;;;;;;;4.03;2.10;;;22.00;33.30;;;;;;5016285;28;20022;-41
2022/04/22 01:20:26;;;;;;;4.22;2.10;;;22.00;33.30;;;;;;5017692;28;20499;-38
2022/04/22 01:22:53;;;;;;;2.50;2.13;;;22.00;33.30;;;;;;5018515;28;20014;-39
2022/04/22 01:25:21;;;;;;;2.20;1.85;;;21.90;33.20;;;;;;5019045;28;20109;-43
2022/04/22 01:27:51;;;;;;;2.90;1.83;;;21.90;33.20;;;;;;5017393;28;20028;-46
2022/04/22 01:30:21;;;;;;;2.58;1.80;;;21.90;33.20;;;;;;5017919;28;20010;-39
2022/04/22 01:32:50;;;;;;;3.15;2.00;;;21.90;33.20;;;;;;5017887;28;20017;-41
2022/04/22 01:35:20;;;;;;;3.72;2.00;;;21.90;33.20;;;;;;5017116;28;20014;-40
2022/04/22 01:37:47;;;;;;;;;;;21.90;33.20;;;;;;5017354;28;20022;-39
2022/04/22 01:40:12;;;;;;;2.17;1.92;;;22.00;33.20;;;;;;5017406;28;19909;-39
2022/04/22 01:42:39;;;;;;;3.35;1.95;;;21.90;33.20;;;;;;5015893;28;20538;-39
2022/04/22 01:45:06;;;;;;;2.60;2.05;;;21.90;33.20;;;;;;5018191;28;20033;-39
2022/04/22 01:47:32;;;;;;;4.63;2.00;;;21.90;33.20;;;;;;5018058;28;20014;-37
2022/04/22 01:49:58;;;;;;;2.80;2.10;;;21.90;33.30;;;;;;5016391;28;20464;-37
2022/04/22 01:52:25;;;;;;;2.38;1.83;;;21.90;33.30;;;;;;5017463;28;20010;-37
2022/04/22 01:54:51;;;;;;;2.72;1.80;;;21.90;33.30;;;;;;5016469;28;20006;-40
2022/04/22 01:57:17;;;;;;;3.90;2.03;;;21.90;33.30;;;;;;5015829;28;20464;-38
2022/04/22 01:59:44;;;;;;;2.80;2.03;;;21.90;33.30;;;;;;5015506;28;20017;-37
2022/04/22 02:02:19;;;;;;;3.90;1.98;;;21.90;33.30;;;;;;5014818;28;20033;-39
2022/04/22 02:04:45;;;;;;;2.97;1.90;;;21.90;33.20;;;;;;5016019;28;20030;-42
2022/04/22 02:07:11;;;;;;;2.25;1.83;;;21.80;33.30;;;;;;5016075;28;20014;-39
2022/04/22 02:09:41;;;;;;;3.45;2.05;;;21.80;33.20;;;;;;5016639;28;20010;-37
2022/04/22 02:12:10;;;;;;;3.88;2.35;;;21.80;33.30;;;;;;5015793;28;20018;-37
2022/04/22 02:14:35;;;;;;;4.88;2.10;;;21.80;33.30;;;;;;5016487;28;20093;-39
2022/04/22 02:17:01;;;;;;;4.55;2.15;;;21.80;33.30;;;;;;5016825;28;20026;-37
2022/04/22 02:19:28;;;;;;;3.33;2.00;;;21.80;33.30;;;;;;5015847;28;20032;-38
2022/04/22 02:22:00;;;;;;;2.28;1.98;;;21.80;33.40;;;;;;5149248;27;20158;-38
2022/04/22 02:24:26;;;;;;;3.10;2.10;;;21.80;33.40;;;;;;5132940;28;20019;-40
2022/04/22 02:29:38;;;;;;;2.60;2.00;;;21.80;33.40;;;;;;5132900;28;20034;-37
2022/04/22 02:32:04;;;;;;;4.15;2.22;;;21.80;33.40;;;;;;5132525;28;20047;-37
2022/04/22 02:34:31;;;;;;;2.70;1.92;;;21.80;33.40;;;;;;5133654;27;20007;-39
2022/04/22 02:36:56;;;;;;;2.97;1.90;;;21.80;33.40;;;;;;5133503;27;20032;-37
2022/04/22 02:39:22;;;;;;;3.88;1.90;;;21.80;33.40;;;;;;5132724;28;20015;-39
2022/04/22 02:47:18;;;;;;;3.35;1.95;;;21.80;34.00;;;;;;5134415;28;20107;-37
2022/04/22 02:49:44;;;;;;;2.45;1.92;;;21.80;33.50;;;;;;5135360;28;20075;-37
2022/04/22 02:52:13;;;;;;;4.50;2.00;;;21.80;33.50;;;;;;5134591;28;20015;-37
2022/04/22 02:54:40;;;;;;;2.63;2.05;;;21.80;33.60;;;;;;5134713;28;20020;-36
2022/04/22 02:57:06;;;;;;;3.70;2.10;;;21.80;33.60;;;;;;5134381;28;20023;-40
2022/04/22 02:59:41;;;;;;;3.30;2.10;;;21.80;33.60;;;;;;5134594;27;20011;-36
2022/04/22 03:02:08;;;;;;;2.92;2.17;;;21.80;33.70;;;;;;5133432;28;20035;-37
2022/04/22 03:04:34;;;;;;;3.10;2.10;;;21.80;33.70;;;;;;5133251;28;20497;-36
2022/04/22 03:06:59;;;;;;;3.00;2.03;;;21.80;33.70;;;;;;5133796;28;20039;-37
2022/04/22 03:09:26;;;;;;;3.05;2.00;;;21.70;33.70;;;;;;5134354;27;20030;-36
2022/04/22 03:11:52;;;;;;;2.60;2.00;;;21.70;33.70;;;;;;5133360;28;20058;-38
2022/04/22 03:14:18;;;;;;;3.63;2.08;;;21.80;33.70;;;;;;5133599;27;20019;-37
2022/04/22 03:16:44;;;;;;;2.92;1.90;;;21.70;33.70;;;;;;5133377;28;20457;-37
2022/04/22 03:19:11;;;;;;;3.60;2.00;;;21.70;33.70;;;;;;5133020;28;20007;-37
2022/04/22 03:21:37;;;;;;;3.28;2.08;;;21.70;33.80;;;;;;5131127;28;20520;-36
2022/04/22 03:24:04;;;;;;;3.17;2.00;;;21.80;33.80;;;;;;5132683;28;20542;-36
2022/04/22 03:26:30;;;;;;;3.50;2.53;;;21.70;33.80;;;;;;5132367;28;20016;-37
2022/04/22 03:28:59;;;;;;;3.47;2.05;;;21.70;33.80;;;;;;5132660;28;20094;-37
2022/04/22 03:31:25;;;;;;;4.07;2.17;;;21.70;33.90;;;;;;5130531;28;20023;-37
2022/04/22 03:33:51;;;;;;;3.20;2.38;;;21.80;33.90;;;;;;5119956;28;20537;-38
2022/04/22 03:36:17;;;;;;;2.72;2.08;;;21.70;33.90;;;;;;5119918;28;20038;-36
2022/04/22 03:38:43;;;;;;;3.00;2.20;;;21.70;34.00;;;;;;5119880;28;20035;-38
2022/04/22 03:41:12;;;;;;;3.10;2.40;;;21.70;34.00;;;;;;5119290;28;20032;-36
2022/04/22 03:43:40;;;;;;;4.78;2.10;;;21.70;34.50;;;;;;5119642;28;20036;-36
2022/04/22 03:46:05;;;;;;;2.60;2.40;;;21.70;34.10;;;;;;5119065;28;20019;-37
2022/04/22 03:48:32;;;;;;;2.95;2.17;;;21.70;34.00;;;;;;5118242;28;20020;-37
2022/04/22 03:50:57;;;;;;;3.42;2.33;;;21.70;34.10;;;;;;5119670;28;20115;-36
2022/04/22 03:53:23;;;;;;;3.40;2.20;;;21.70;34.10;;;;;;5119791;28;20051;-37
2022/04/22 03:55:49;;;;;;;3.50;2.47;;;21.70;34.20;;;;;;5118943;28;20042;-38
2022/04/22 03:58:16;;;;;;;3.88;2.47;;;21.70;34.20;;;;;;5118059;28;20503;-39
2022/04/22 04:00:50;;;;;;;4.00;2.30;;;21.70;34.20;;;;;;5117790;28;20031;-37
2022/04/22 04:03:18;;;;;;;3.30;2.47;;;21.70;34.20;;;;;;5117490;28;20346;-39
2022/04/22 04:05:51;;;;;;;4.75;2.35;;;21.70;34.30;;;;;;5117649;28;20023;-38
2022/04/22 04:08:20;;;;;;;4.03;2.45;;;21.60;34.30;;;;;;5118087;28;20018;-37
2022/04/22 04:16:15;;;;;;;3.08;2.22;;;21.70;34.30;;;;;;5117984;28;20039;-38
2022/04/22 04:18:41;;;;;;;2.95;2.30;;;21.70;34.40;;;;;;5118368;28;20378;-37
2022/04/22 04:23:52;;;;;;;4.00;2.50;;;21.60;34.40;;;;;;5117982;28;20019;-37
2022/04/22 04:26:21;;;;;;;3.55;2.35;;;21.60;34.50;;;;;;5117638;28;20027;-37
2022/04/22 04:28:47;;;;;;;3.13;2.40;;;21.60;34.50;;;;;;5118568;28;20024;-39
2022/04/22 04:31:13;;;;;;;3.55;2.38;;;21.60;34.60;;;;;;5118861;28;20035;-37
2022/04/22 04:33:39;;;;;;;4.03;2.38;;;21.60;34.60;;;;;;5118523;28;20048;-37
2022/04/22 04:36:05;;;;;;;3.80;2.40;;;21.60;34.70;;;;;;5116298;28;20488;-38
2022/04/22 04:38:31;;;;;;;2.88;2.30;;;21.60;34.70;;;;;;5117766;28;20028;-37
2022/04/22 04:40:58;;;;;;;3.65;2.60;;;21.60;34.60;;;;;;5115698;28;20496;-38
2022/04/22 04:43:24;;;;;;;3.33;2.42;;;21.60;34.60;;;;;;5116308;28;20015;-37
2022/04/22 04:45:50;;;;;;;3.75;2.50;;;21.60;34.70;;;;;;5116885;28;20071;-37
2022/04/22 04:48:17;;;;;;;3.20;2.45;;;21.50;34.70;;;;;;5116849;28;20051;-37
2022/04/22 04:50:43;;;;;;;3.17;2.60;;;21.60;34.80;;;;;;5117293;27;20053;-38
2022/04/22 04:53:12;;;;;;;4.40;2.60;;;21.60;35.30;;;;;;5116511;28;20019;-37
2022/04/22 04:55:38;;;;;;;3.88;2.50;;;21.60;34.80;;;;;;5116437;28;20068;-38
2022/04/22 04:58:04;;;;;;;5.40;2.60;;;21.60;34.90;;;;;;5116769;28;20026;-39
2022/04/22 05:00:33;;;;;;;2.88;2.58;;;21.60;34.90;;;;;;5116527;28;20101;-37
2022/04/22 05:02:59;;;;;;;5.60;2.58;;;21.60;34.90;;;;;;5116479;28;20007;-38
2022/04/22 05:05:25;;;;;;;4.03;2.53;;;21.60;34.90;;;;;;5116142;28;20488;-39
2022/04/22 05:07:59;;;;;;;4.10;2.67;;;21.60;34.90;;;;;;5114796;28;20473;-37
2022/04/22 05:10:29;;;;;;;4.20;2.72;;;21.60;35.00;;;;;;5116342;28;20023;-40
2022/04/22 05:12:55;;;;;;;4.72;2.63;;;21.70;34.90;;;;;;5114412;28;20020;-36
2022/04/22 05:15:25;;;;;;;3.60;2.50;;;21.70;35.00;;;;;;5115317;28;20103;-37
2022/04/22 05:17:51;;;;;;;2.75;2.30;;;21.70;34.90;;;;;;5114996;28;20019;-37
2022/04/22 05:20:19;;;;;;;5.68;2.60;;;21.70;34.90;;;;;;5115158;28;20048;-37
2022/04/22 05:22:45;;;;;;;5.18;2.80;;;21.80;34.90;;;;;;5115307;28;20030;-38
2022/04/22 05:25:12;;;;;;;5.13;2.60;;;21.80;34.90;;;;;;5115622;28;20461;-38
2022/04/22 05:27:38;;;;;;;3.90;2.20;;;21.80;34.80;;;;;;5115841;27;20008;-36
2022/04/22 05:32:51;;;;;;;3.22;2.58;;;21.90;34.70;;;;;;5117291;28;20030;-38
2022/04/22 05:35:21;;;;;;;3.35;2.50;;;22.00;34.60;;;;;;5115387;28;20069;-37
2022/04/22 05:38:00;;;;;;;3.75;2.33;;;22.00;34.30;;;;;;5116385;28;20498;-38
2022/04/22 05:40:36;;;;;;;3.17;2.53;;;22.10;34.80;;;;;;5115264;28;20482;-37
2022/04/22 05:43:03;;;;;;;2.72;2.38;;;22.20;34.10;;;;;;5113900;28;20370;-37
2022/04/22 05:45:29;;;;;;;4.63;3.00;;;22.40;33.80;;;;;;5113856;28;20008;-37
2022/04/22 05:47:58;;;;;;;4.32;2.25;;;22.60;33.50;;;;;;5114641;28;20020;-37
2022/04/22 05:50:25;;;;;;;3.67;2.60;;;22.80;33.30;;;;;;5114770;28;20377;-36
2022/04/22 05:52:50;;;;;;;3.85;2.70;;;22.90;32.90;;;;;;5114872;28;20032;-37
2022/04/22 05:55:27;;;;;;;3.22;2.50;;;23.10;32.70;;;;;;5114436;28;20435;-37
2022/04/22 05:57:53;;;;;;;2.67;2.10;;;23.30;32.40;;;;;;5113081;28;20445;-37
2022/04/22 06:00:21;;;;;;;3.88;2.30;;;23.50;32.10;;;;;;5112772;28;20115;-38
2022/04/22 06:02:46;;;;;;;4.15;2.28;;;23.70;31.80;;;;;;5114205;28;20381;-38
2022/04/22 06:05:14;;;;;;;4.50;2.40;;;23.90;31.50;;;;;;5114954;28;20011;-39
2022/04/22 06:07:40;;;;;;;3.70;2.30;;;24.10;31.20;;;;;;5113333;28;20035;-40
2022/04/22 06:12:51;;;;;;;3.15;2.28;;;24.40;30.80;;;;;;5112595;28;20106;-36
2022/04/22 06:15:17;;;;;;;2.92;2.15;;;24.50;30.50;;;;;;5113466;28;20015;-37
2022/04/22 06:17:43;;;;;;;3.28;2.30;;;24.70;30.30;;;;;;5113357;28;20059;-37
2022/04/22 06:20:09;;;;;;;3.03;1.90;;;24.80;30.20;;;;;;5112890;28;20075;-38
2022/04/22 06:22:35;;;;;;;2.42;2.10;;;24.90;30.00;;;;;;5110820;28;20016;-38
2022/04/22 06:25:01;;;;;;;6.50;2.13;;;25.10;30.00;;;;;;5111184;28;20026;-38
2022/04/22 06:27:28;;;;;;;8.00;2.72;;;25.10;30.00;;;;;;5112786;28;20470;-38
2022/04/22 06:29:55;;;;;;;14.98;6.05;;;25.10;30.70;;;;;;5113178;28;20004;-38
2022/04/22 06:32:27;;;;;;;11.18;6.75;;;23.80;33.30;;;;;;5111842;28;20041;-36
2022/04/22 06:34:53;;;;;;;10.55;7.78;;;22.50;35.50;;;;;;5113362;28;20022;-38
2022/04/22 06:37:19;;;;;;;10.93;7.80;;;21.60;37.50;;;;;;5113152;28;20042;-35
2022/04/22 06:47:59;;;;;;;12.82;8.27;;;20.00;41.00;;;;;;5113549;28;20075;-38
2022/04/22 06:50:25;;;;;;;11.10;8.73;;;19.90;41.30;;;;;;5113198;28;20028;-37
2022/04/22 06:52:51;;;;;;;11.57;8.50;;;19.70;42.20;;;;;;5111991;28;20018;-37
2022/04/22 06:55:17;;;;;;;10.70;7.78;;;19.80;41.60;;;;;;5111634;28;20027;-38
2022/04/22 06:57:50;;;;;;;10.00;5.53;;;20.10;41.40;;;;;;5112754;28;20012;-38
2022/04/22 07:00:17;;;;;;;6.85;4.60;;;21.00;39.90;;;;;;5112920;28;20032;-40
2022/04/22 07:02:44;;;;;;;7.78;3.60;;;22.10;38.30;;;;;;5113039;28;20094;-40
2022/04/22 07:05:16;;;;;;;5.47;3.17;;;22.90;36.60;;;;;;5112611;28;20099;-38
2022/04/22 07:07:41;;;;;;;5.50;2.85;;;23.60;35.60;;;;;;5114857;28;20104;-38
2022/04/22 07:10:08;;;;;;;6.20;2.83;;;24.20;34.70;;;;;;5116567;28;20020;-39
2022/04/22 07:12:34;;;;;;;7.38;2.80;;;24.60;34.00;;;;;;5114690;28;20460;-40
2022/04/22 07:15:06;;;;;;;9.30;3.00;;;25.00;33.60;;;;;;5114638;28;20024;-37
2022/04/22 07:17:36;;;;;;;13.77;2.67;;;25.30;33.20;;;;;;5115679;28;20012;-37
2022/04/22 07:20:05;;;;;;;13.88;2.80;;;25.60;32.80;;;;;;5115329;28;20081;-38
2022/04/22 07:22:31;;;;;;;6.30;2.58;;;25.90;32.70;;;;;;5116386;28;20016;-37
2022/04/22 07:24:57;;;;;;;10.82;2.70;;;26.00;32.60;;;;;;5116389;28;20011;-37
2022/04/22 07:27:26;;;;;;;10.73;2.95;;;26.20;32.60;;;;;;5114674;28;20022;-37
2022/04/22 07:29:52;;;;;;;6.00;2.63;;;26.40;32.30;;;;;;5114473;28;20094;-37
2022/04/22 07:32:18;;;;;;;8.30;2.83;;;26.60;32.20;;;;;;5115797;28;20020;-37
2022/04/22 07:34:44;;;;;;;8.02;2.88;;;26.80;32.10;;;;;;5115644;28;20024;-36
2022/04/22 07:37:12;;;;;;;13.68;3.00;;;26.90;31.90;;;;;;5115723;28;20087;-37
2022/04/22 07:39:39;;;;;;;9.20;2.58;;;27.10;31.90;;;;;;5115961;28;20053;-36
2022/04/22 07:42:08;;;;;;;8.27;2.88;;;27.20;31.80;;;;;;5116101;28;20027;-34
2022/04/22 07:47:19;;;;;;;6.03;2.25;;;27.40;31.90;;;;;;5115102;28;20079;-37
2022/04/22 07:49:48;;;;;;;12.50;2.80;;;27.50;31.80;;;;;;5114284;28;20061;-37
2022/04/22 07:52:14;;;;;;;9.52;2.70;;;27.70;31.80;;;;;;5115270;28;20020;-37
2022/04/22 07:54:40;;;;;;;7.47;2.40;;;27.70;31.80;;;;;;5115688;27;20015;-38
2022/04/22 07:57:05;;;;;;;6.65;2.40;;;27.80;31.90;;;;;;5115754;28;20104;-38
2022/04/22 07:59:33;;;;;;;7.65;2.88;;;27.80;31.80;;;;;;5115482;28;20594;-36
2022/04/22 08:02:02;;;;;;;7.00;2.25;;;27.90;31.80;;;;;;5114243;28;20122;-38
2022/04/22 08:04:28;;;;;;;7.65;2.40;;;27.90;31.90;;;;;;5114885;28;20020;-37
2022/04/22 08:06:53;;;;;;;9.57;2.50;;;28.00;31.90;;;;;;5115138;28;20018;-38
2022/04/22 08:09:19;;;;;;;11.95;3.15;;;28.00;31.80;;;;;;5115141;28;20012;-38
2022/04/22 08:11:45;;;;;;;9.95;2.90;;;28.00;31.70;;;;;;5115080;28;20090;-38
2022/04/22 08:14:12;;;;;;;10.02;2.38;;;28.00;31.50;;;;;;5113715;28;20155;-38
2022/04/22 08:16:38;;;;;;;7.75;2.90;;;28.10;31.40;;;;;;5114315;28;20140;-38
2022/04/22 08:19:04;;;;;;;10.20;2.50;;;28.10;31.20;;;;;;5113103;28;20016;-38
2022/04/22 08:21:33;;;;;;;16.00;7.50;;;28.10;31.20;;;;;;5114399;28;20112;-37
2022/04/22 08:24:00;;;;;;;13.30;8.32;;;24.50;32.20;;;;;;5114967;28;20020;-36
2022/04/22 08:26:26;;;;;;;10.93;7.32;;;22.10;36.00;;;;;;5115120;28;20008;-34
2022/04/22 08:28:52;;;;;;;17.10;7.03;;;22.00;36.70;;;;;;5114924;28;20040;-34
2022/04/22 08:31:18;;;;;;;13.93;8.35;;;22.40;36.40;;;;;;5114405;28;20171;-34
2022/04/22 08:33:46;;;;;;;11.88;6.72;;;21.60;37.10;;;;;;5114516;28;20560;-34
2022/04/22 08:36:13;;;;;;;11.27;7.35;;;21.80;37.90;;;;;;5113772;28;20020;-34
2022/04/22 08:38:39;;;;;;;9.13;5.63;;;22.00;37.10;;;;;;5113740;28;20035;-34
2022/04/22 08:41:07;;;;;;;10.30;5.03;;;23.00;35.80;;;;;;5113336;28;20434;-34
2022/04/22 08:43:33;;;;;;;13.82;5.13;;;23.90;34.20;;;;;;5113581;28;20012;-35
2022/04/22 08:46:01;;;;;;;12.95;4.47;;;24.70;33.20;;;;;;5113668;28;20007;-37
2022/04/22 08:51:11;;;;;;;7.70;3.75;;;25.50;31.90;;;;;;5114049;28;20072;-38
2022/04/22 08:53:36;;;;;;;9.20;4.28;;;25.80;32.00;;;;;;5113055;28;20032;-37
2022/04/22 08:56:03;;;;;;;11.07;4.38;;;26.00;31.80;;;;;;5113500;28;20016;-36
2022/04/22 08:58:29;;;;;;;12.43;4.10;;;26.30;31.80;;;;;;5112556;28;20454;-36
2022/04/22 09:00:57;;;;;;;8.38;3.78;;;26.30;31.50;;;;;;5114341;28;20470;-37
2022/04/22 09:03:25;;;;;;;11.98;4.10;;;26.60;31.80;;;;;;5113512;28;20019;-38
2022/04/22 09:05:51;;;;;;;8.65;3.80;;;26.60;31.50;;;;;;5113134;28;20091;-37
2022/04/22 09:08:17;;;;;;;5.90;3.45;;;26.60;31.60;;;;;;5111564;28;20051;-37
2022/04/22 09:10:43;;;;;;;13.25;8.65;;;26.40;31.90;;;;;;5112161;28;20012;-37
2022/04/22 09:13:10;;;;;;;14.10;8.05;;;24.40;33.10;;;;;;5113514;28;20438;-37
2022/04/22 09:15:36;;;;;;;15.38;7.93;;;23.60;35.10;;;;;;5113458;28;20049;-36
2022/04/22 09:18:09;;;;;;;11.70;7.80;;;23.70;35.20;;;;;;5112654;28;20027;-35
2022/04/22 09:20:35;;;;;;;11.43;7.82;;;23.70;35.40;;;;;;5113550;28;20044;-36
2022/04/22 09:23:01;;;;;;;15.63;9.18;;;23.60;35.30;;;;;;5095560;28;20386;-35
2022/04/22 09:25:28;;;;;;;14.05;8.55;;;22.90;35.10;;;;;;5112275;28;20023;-34
2022/04/22 09:28:05;;;;;;;13.20;7.13;;;22.70;36.20;;;;;;5113839;28;20012;-35
2022/04/22 09:30:32;;;;;;;7.97;6.28;;;22.90;36.00;;;;;;5111880;28;20026;-35
2022/04/22 09:32:57;;;;;;;8.32;6.00;;;23.10;35.50;;;;;;5113402;28;20032;-35
2022/04/22 09:35:25;;;;;;;13.30;6.40;;;23.20;35.40;;;;;;5112375;28;20088;-35
2022/04/22 09:43:38;;;;;;;13.50;10.10;;;23.60;34.10;;;;;;5113284;28;20100;-34
2022/04/22 09:46:04;;;;;;;10.52;9.25;;;23.10;34.40;;;;;;5112930;28;20061;-34
2022/04/22 09:48:44;;;;;;;14.77;9.80;;;22.90;34.80;;;;;;5111560;28;20037;-36
2022/04/22 09:51:30;;;;;;;14.57;9.52;;;22.40;35.50;;;;;;5111806;28;20095;-36
2022/04/22 09:54:14;;;;;;;13.85;8.60;;;22.00;35.40;;;;;;5111149;28;20063;-37
2022/04/22 09:57:01;;;;;;;12.65;7.60;;;21.90;36.30;;;;;;5111379;28;20042;-38
2022/04/22 09:59:32;;;;;;;13.98;7.40;;;22.20;36.00;;;;;;5112807;28;20023;-38
2022/04/22 10:01:58;;;;;;;17.92;8.30;;;22.60;35.00;;;;;;5114511;28;20106;-37
2022/04/22 10:04:24;;;;;;;14.70;8.27;;;22.80;34.50;;;;;;5114265;28;20068;-36
2022/04/22 10:06:50;;;;;;;12.90;7.63;;;22.50;33.90;;;;;;5115191;28;20023;-34
2022/04/22 10:09:16;;;;;;;12.55;7.15;;;22.10;34.70;;;;;;5115247;28;20008;-36
2022/04/22 10:11:44;;;;;;;10.57;7.10;;;21.90;35.00;;;;;;5113547;28;20020;-36
2022/04/22 10:14:10;;;;;;;10.05;7.57;;;21.80;34.90;;;;;;5113363;28;20016;-37
2022/04/22 10:16:36;;;;;;;13.40;7.38;;;21.60;34.70;;;;;;5113329;28;20543;-37
2022/04/22 10:19:03;;;;;;;14.38;6.63;;;21.60;34.90;;;;;;5115349;28;20007;-37
2022/04/22 10:21:29;;;;;;;11.93;6.93;;;21.70;35.30;;;;;;5115158;28;20102;-37
2022/04/22 10:23:56;;;;;;;12.63;6.28;;;21.80;34.80;;;;;;5113572;28;20020;-38
2022/04/22 10:26:22;;;;;;;15.20;6.28;;;21.80;35.20;;;;;;5114006;28;20019;-38
2022/04/22 10:28:48;;;;;;;10.85;5.50;;;22.00;34.80;;;;;;5115282;28;20032;-39
2022/04/22 10:31:14;;;;;;;16.05;5.95;;;22.10;34.70;;;;;;5114851;28;20091;-37
2022/04/22 10:33:44;;;;;;;14.70;5.97;;;22.30;34.80;;;;;;5115865;28;20031;-37
2022/04/22 10:36:17;;;;;;;10.57;5.38;;;22.40;34.10;;;;;;5117981;28;20079;-36
2022/04/22 10:38:47;;;;;;;9.88;5.03;;;22.20;34.30;;;;;;5117931;28;20015;-35
2022/04/22 10:41:17;;;;;;;7.90;3.90;;;22.40;34.10;;;;;;5120196;28;20100;-38
2022/04/22 10:43:43;;;;;;;7.72;4.50;;;22.60;33.50;;;;;;5122014;28;20016;-36
2022/04/22 10:49:10;;;;;;;8.18;4.68;;;22.70;32.80;;;;;;5117049;28;20119;-36
2022/04/22 10:52:09;;;;;;;26.30;5.10;;;22.50;32.80;;;;;;5114920;28;20020;-36
2022/04/22 10:54:52;;;;;;;12.40;4.15;;;22.30;34.20;;;;;;5116333;28;20735;-36
2022/04/22 10:57:27;;;;;;;16.70;4.75;;;22.70;34.30;;;;;;5116505;28;20047;-35
2022/04/22 11:00:10;;;;;;;14.73;4.10;;;23.00;34.80;;;;;;5116461;28;20019;-34
2022/04/22 11:02:37;;;;;;;18.33;4.43;;;23.20;35.00;;;;;;5116182;28;20019;-38
2022/04/22 11:05:23;;;;;;;13.88;4.20;;;23.40;35.20;;;;;;5115024;28;20004;-38
2022/04/22 11:08:01;;;;;;;16.05;4.20;;;23.60;35.60;;;;;;5116192;28;20031;-37
2022/04/22 11:10:29;;;;;;;10.63;3.80;;;23.80;35.60;;;;;;5116077;28;20396;-36
2022/04/22 11:12:58;;;;;;;16.13;4.20;;;23.80;35.80;;;;;;5115008;28;20046;-37
2022/04/22 11:15:43;;;;;;;14.93;3.95;;;23.90;36.20;;;;;;5116117;28;20020;-36
2022/04/22 11:18:14;;;;;;;9.25;3.47;;;24.10;36.40;;;;;;5115974;28;20023;-36
2022/04/22 11:21:16;;;;;;;8.35;3.67;;;24.10;36.50;;;;;;5114282;28;20048;-34
2022/04/22 11:23:44;;;;;;;12.23;3.85;;;24.20;36.80;;;;;;5052808;28;20033;-35
2022/04/22 11:26:14;;;;;;;10.50;3.78;;;24.30;37.00;;;;;;5052765;28;20025;-35
2022/04/22 11:28:40;;;;;;;;;;;24.30;37.00;;;;;;5052837;28;20021;-34
2022/04/22 11:31:08;;;;;;;7.75;3.80;;;24.40;37.20;;;;;;5052385;28;20004;-35
2022/04/22 11:34:05;;;;;;;10.43;3.85;;;24.50;37.30;;;;;;5052228;28;20048;-35
2022/04/22 11:36:31;;;;;;;9.18;3.70;;;24.60;37.40;;;;;;5051916;28;20017;-36
2022/04/22 11:38:57;;;;;;;10.07;3.88;;;24.60;37.70;;;;;;5035186;28;20053;-36
2022/04/22 11:41:23;;;;;;;15.15;4.57;;;24.60;37.70;;;;;;5051553;28;20052;-35
2022/04/22 11:43:49;;;;;;;11.63;3.88;;;24.40;37.20;;;;;;5052666;28;20108;-35
2022/04/22 11:46:16;;;;;;;20.90;4.68;;;24.50;37.30;;;;;;5052850;28;20081;-35
2022/04/22 11:48:53;;;;;;;18.92;4.72;;;24.50;37.50;;;;;;5036303;28;20017;-36
2022/04/22 11:51:20;;;;;;;19.35;4.40;;;24.50;37.80;;;;;;5053097;28;20032;-37
2022/04/22 11:53:49;;;;;;;16.73;4.07;;;24.60;37.80;;;;;;5052695;28;20150;-37
2022/04/22 11:56:24;;;;;;;19.13;5.22;;;24.60;37.70;;;;;;5053003;28;20188;-38
2022/04/22 11:58:53;;;;;;;14.23;4.53;;;24.60;37.60;;;;;;5074438;28;20024;-38
2022/04/22 12:06:56;;;;;;;12.63;4.28;;;24.80;37.30;;;;;;5114661;28;20026;-37
2022/04/22 12:09:23;;;;;;;11.07;4.13;;;24.80;37.30;;;;;;5115749;28;20093;-36
2022/04/22 12:11:50;;;;;;;13.35;4.70;;;24.80;37.40;;;;;;5115316;27;20023;-36
2022/04/22 12:14:24;;;;;;;14.73;4.50;;;24.80;37.20;;;;;;5115590;28;20144;-36
2022/04/22 12:16:59;;;;;;;15.25;4.30;;;24.90;37.20;;;;;;5115495;28;20516;-37
2022/04/22 12:19:26;;;;;;;23.08;4.50;;;24.90;37.40;;;;;;5115146;28;20135;-37
2022/04/22 12:21:51;;;;;;;13.57;4.00;;;24.90;37.30;;;;;;5114947;28;20050;-37
2022/04/22 12:24:21;;;;;;;16.02;4.57;;;24.90;37.20;;;;;;5113764;28;20049;-37
2022/04/22 12:26:47;;;;;;;16.73;3.93;;;24.90;37.40;;;;;;5114708;28;20131;-38
2022/04/22 12:29:13;;;;;;;12.75;4.32;;;24.90;37.20;;;;;;5114831;28;20293;-38
2022/04/22 12:31:49;;;;;;;9.88;4.03;;;24.80;37.20;;;;;;5114511;28;20427;-38
2022/04/22 12:34:34;;;;;;;11.20;4.20;;;24.80;35.90;;;;;;5116145;28;20381;-39
2022/04/22 12:37:01;;;;;;;10.45;3.90;;;24.70;36.00;;;;;;5115462;28;20015;-39
2022/04/22 12:39:39;;;;;;;15.32;4.65;;;24.70;36.00;;;;;;5115348;27;20027;-38
2022/04/22 12:42:06;;;;;;;8.02;4.10;;;24.60;35.80;;;;;;5116056;28;20035;-39
2022/04/22 12:44:32;;;;;;;10.98;3.95;;;24.50;35.70;;;;;;5115884;28;20027;-39
2022/04/22 12:52:47;;;;;;;8.02;3.92;;;24.40;35.20;;;;;;5115107;28;20027;-40
2022/04/22 12:55:16;;;;;;;12.77;4.03;;;24.40;35.00;;;;;;5115730;28;20020;-39
2022/04/22 12:57:42;;;;;;;8.85;3.97;;;24.50;34.80;;;;;;5115331;28;20031;-41
2022/04/22 13:00:18;;;;;;;9.98;3.72;;;24.50;34.60;;;;;;5115599;28;20023;-42
2022/04/22 13:02:44;;;;;;;12.60;4.03;;;24.50;34.40;;;;;;5115142;28;20020;-38
2022/04/22 13:05:20;;;;;;;9.55;3.75;;;24.40;34.20;;;;;;5114153;28;20004;-39
2022/04/22 13:07:47;;;;;;;8.07;3.63;;;24.50;34.20;;;;;;5115112;28;20407;-41
2022/04/22 13:10:13;;;;;;;7.95;3.55;;;24.50;34.10;;;;;;5114800;28;20024;-41
2022/04/22 13:12:40;;;;;;;7.18;3.30;;;24.50;34.00;;;;;;5114536;28;20149;-38
2022/04/22 13:15:13;;;;;;;9.48;3.45;;;24.40;33.80;;;;;;5113582;28;20523;-38
2022/04/22 13:17:40;;;;;;;6.95;3.42;;;24.50;33.80;;;;;;5112602;28;20023;-39
2022/04/22 13:20:07;;;;;;;11.23;3.50;;;24.40;33.60;;;;;;5113565;28;20038;-39
2022/04/22 13:22:33;;;;;;;9.02;3.47;;;24.40;33.50;;;;;;5115025;28;20040;-38
2022/04/22 13:24:59;;;;;;;9.52;3.33;;;24.50;33.40;;;;;;5116783;28;20056;-40
2022/04/22 13:27:24;;;;;;;7.65;3.25;;;24.40;33.30;;;;;;5116176;28;20511;-39
2022/04/22 13:29:52;;;;;;;6.82;3.50;;;24.40;33.20;;;;;;5117256;28;20060;-39
2022/04/22 13:32:17;;;;;;;5.60;3.25;;;24.40;33.10;;;;;;5133072;27;20016;-40
2022/04/22 13:34:44;;;;;;;8.35;3.45;;;24.40;33.10;;;;;;5116319;28;20024;-40
2022/04/22 13:37:11;;;;;;;7.65;3.08;;;24.40;33.10;;;;;;5117215;28;20020;-41
2022/04/22 13:39:36;;;;;;;7.15;3.38;;;24.30;33.00;;;;;;5116873;28;20027;-40
2022/04/22 13:42:03;;;;;;;8.02;3.10;;;24.30;33.10;;;;;;5117173;28;20019;-38
2022/04/22 13:52:42;;;;;;;5.13;3.45;;;24.10;32.90;;;;;;5116454;28;20504;-40
2022/04/22 13:55:09;;;;;;;8.05;3.58;;;24.10;32.90;;;;;;5116359;28;20039;-40
2022/04/22 13:57:34;;;;;;;5.30;3.22;;;24.10;32.90;;;;;;5116482;28;20011;-40
2022/04/22 14:00:01;;;;;;;5.68;3.30;;;24.10;32.90;;;;;;5115762;28;20023;-39
2022/04/22 14:02:27;;;;;;;6.93;3.00;;;24.10;32.80;;;;;;5114469;28;20072;-42